sensor_id;sensor_type;location;lat;lon;timestamp;temperature;humidity
29713;DHT22;16623;53.632;10.016;2023-12-20T00:00:38;6.10;99.90
29713;DHT22;16623;53.632;10.016;2023-12-20T00:03:04;6.10;99.90
29713;DHT22;16623;53.632;10.016;2023-12-20T00:05:30;6.10;99.90
29713;DHT22;16623;53.632;10.016;2023-12-20T00:07:57;6.10;99.90
29713;DHT22;16623;53.632;10.016;2023-12-20T00:10:23;6.00;99.90
29713;DHT22;16623;53.632;10.016;2023-12-20T00:12:48;6.00;99.90
29713;DHT22;16623;53.632;10.016;2023-12-20T00:15:13;6.00;99.90
29713;DHT22;16623;53.632;10.016;2023-12-20T00:17:39;5.90;99.90
29713;DHT22;16623;53.632;10.016;2023-12-20T00:20:05;5.90;99.90
29713;DHT22;16623;53.632;10.016;2023-12-20T00:22:31;5.90;99.90
29713;DHT22;16623;53.632;10.016;2023-12-20T00:24:57;5.80;99.90
29713;DHT22;16623;53.632;10.016;2023-12-20T00:27:22;5.80;99.90
29713;DHT22;16623;53.632;10.016;2023-12-20T00:29:48;5.80;99.90
29713;DHT22;16623;53.632;10.016;2023-12-20T00:32:16;5.90;99.90
29713;DHT22;16623;53.632;10.016;2023-12-20T00:34:42;5.90;99.90
29713;DHT22;16623;53.632;10.016;2023-12-20T00:37:14;6.00;99.90
29713;DHT22;16623;53.632;10.016;2023-12-20T00:39:39;6.00;99.90
29713;DHT22;16623;53.632;10.016;2023-12-20T00:42:05;5.90;99.90
29713;DHT22;16623;53.632;10.016;2023-12-20T00:44:30;6.00;99.90
29713;DHT22;16623;53.632;10.016;2023-12-20T00:46:56;6.00;99.90
29713;DHT22;16623;53.632;10.016;2023-12-20T00:49:21;6.10;99.90
29713;DHT22;16623;53.632;10.016;2023-12-20T00:51:47;6.10;99.90
29713;DHT22;16623;53.632;10.016;2023-12-20T00:54:13;6.10;99.90
29713;DHT22;16623;53.632;10.016;2023-12-20T00:56:41;6.10;99.90
29713;DHT22;16623;53.632;10.016;2023-12-20T00:59:07;6.10;99.90
29713;DHT22;16623;53.632;10.016;2023-12-20T01:01:33;6.20;99.90
29713;DHT22;16623;53.632;10.016;2023-12-20T01:03:58;6.20;99.90
29713;DHT22;16623;53.632;10.016;2023-12-20T01:06:24;6.20;99.90
29713;DHT22;16623;53.632;10.016;2023-12-20T01:08:49;6.20;99.90
29713;DHT22;16623;53.632;10.016;2023-12-20T01:11:15;6.20;99.90
29713;DHT22;16623;53.632;10.016;2023-12-20T01:13:40;6.20;99.90
29713;DHT22;16623;53.632;10.016;2023-12-20T01:16:06;6.20;99.90
29713;DHT22;16623;53.632;10.016;2023-12-20T01:18:32;6.20;99.90
29713;DHT22;16623;53.632;10.016;2023-12-20T01:21:02;6.10;99.90
29713;DHT22;16623;53.632;10.016;2023-12-20T01:23:28;6.10;99.90
29713;DHT22;16623;53.632;10.016;2023-12-20T01:25:54;6.10;99.90
29713;DHT22;16623;53.632;10.016;2023-12-20T01:28:19;6.10;99.90
29713;DHT22;16623;53.632;10.016;2023-12-20T01:30:45;5.90;99.90
29713;DHT22;16623;53.632;10.016;2023-12-20T01:33:10;5.90;99.90
29713;DHT22;16623;53.632;10.016;2023-12-20T01:35:36;5.90;99.90
29713;DHT22;16623;53.632;10.016;2023-12-20T01:38:02;5.80;99.90
29713;DHT22;16623;53.632;10.016;2023-12-20T01:40:28;5.80;99.90
29713;DHT22;16623;53.632;10.016;2023-12-20T01:43:01;5.80;99.90
29713;DHT22;16623;53.632;10.016;2023-12-20T01:45:27;5.80;99.90
29713;DHT22;16623;53.632;10.016;2023-12-20T01:47:54;5.80;99.90
29713;DHT22;16623;53.632;10.016;2023-12-20T01:50:21;5.80;99.90
29713;DHT22;16623;53.632;10.016;2023-12-20T01:52:46;5.70;99.90
29713;DHT22;16623;53.632;10.016;2023-12-20T01:55:13;5.80;99.90
29713;DHT22;16623;53.632;10.016;2023-12-20T01:57:43;5.90;99.90
29713;DHT22;16623;53.632;10.016;2023-12-20T02:00:11;6.00;99.90
29713;DHT22;16623;53.632;10.016;2023-12-20T02:02:39;5.90;99.90
29713;DHT22;16623;53.632;10.016;2023-12-20T02:05:09;6.00;99.90
29713;DHT22;16623;53.632;10.016;2023-12-20T02:07:35;6.00;99.90
29713;DHT22;16623;53.632;10.016;2023-12-20T02:10:01;5.90;99.90
29713;DHT22;16623;53.632;10.016;2023-12-20T02:12:27;5.80;99.90
29713;DHT22;16623;53.632;10.016;2023-12-20T02:14:52;5.80;99.90
29713;DHT22;16623;53.632;10.016;2023-12-20T02:17:19;5.80;99.90
29713;DHT22;16623;53.632;10.016;2023-12-20T02:19:45;5.90;99.90
29713;DHT22;16623;53.632;10.016;2023-12-20T02:22:11;5.90;99.90
29713;DHT22;16623;53.632;10.016;2023-12-20T02:24:43;5.90;99.90
29713;DHT22;16623;53.632;10.016;2023-12-20T02:27:09;5.80;99.90
29713;DHT22;16623;53.632;10.016;2023-12-20T02:29:34;5.90;99.90
29713;DHT22;16623;53.632;10.016;2023-12-20T02:32:00;5.90;99.90
29713;DHT22;16623;53.632;10.016;2023-12-20T02:34:26;5.90;99.90
29713;DHT22;16623;53.632;10.016;2023-12-20T02:36:51;6.00;99.90
29713;DHT22;16623;53.632;10.016;2023-12-20T02:39:17;6.00;99.90
29713;DHT22;16623;53.632;10.016;2023-12-20T02:41:43;6.00;99.90
29713;DHT22;16623;53.632;10.016;2023-12-20T02:44:09;6.10;99.90
29713;DHT22;16623;53.632;10.016;2023-12-20T02:46:34;6.10;99.90
29713;DHT22;16623;53.632;10.016;2023-12-20T02:49:07;6.10;99.90
29713;DHT22;16623;53.632;10.016;2023-12-20T02:51:32;6.10;99.90
29713;DHT22;16623;53.632;10.016;2023-12-20T02:53:58;6.10;99.90
29713;DHT22;16623;53.632;10.016;2023-12-20T02:56:23;6.60;99.90
29713;DHT22;16623;53.632;10.016;2023-12-20T02:58:49;6.10;99.90
29713;DHT22;16623;53.632;10.016;2023-12-20T03:01:14;6.20;99.90
29713;DHT22;16623;53.632;10.016;2023-12-20T03:03:40;6.20;99.90
29713;DHT22;16623;53.632;10.016;2023-12-20T03:06:07;6.20;99.90
29713;DHT22;16623;53.632;10.016;2023-12-20T03:08:33;6.10;99.90
29713;DHT22;16623;53.632;10.016;2023-12-20T03:10:59;6.20;99.90
29713;DHT22;16623;53.632;10.016;2023-12-20T03:13:25;6.20;99.90
29713;DHT22;16623;53.632;10.016;2023-12-20T03:15:50;6.20;99.90
29713;DHT22;16623;53.632;10.016;2023-12-20T03:18:15;6.20;99.90
29713;DHT22;16623;53.632;10.016;2023-12-20T03:20:41;6.20;99.90
29713;DHT22;16623;53.632;10.016;2023-12-20T03:23:07;6.20;99.90
29713;DHT22;16623;53.632;10.016;2023-12-20T03:25:32;6.20;99.90
29713;DHT22;16623;53.632;10.016;2023-12-20T03:28:05;6.30;99.90
29713;DHT22;16623;53.632;10.016;2023-12-20T03:30:31;6.30;99.90
29713;DHT22;16623;53.632;10.016;2023-12-20T03:32:56;6.30;99.90
29713;DHT22;16623;53.632;10.016;2023-12-20T03:35:22;6.20;99.90
29713;DHT22;16623;53.632;10.016;2023-12-20T03:37:47;7.60;99.90
29713;DHT22;16623;53.632;10.016;2023-12-20T03:40:13;6.20;99.90
29713;DHT22;16623;53.632;10.016;2023-12-20T03:42:38;6.10;99.90
29713;DHT22;16623;53.632;10.016;2023-12-20T03:45:04;6.20;99.90
29713;DHT22;16623;53.632;10.016;2023-12-20T03:47:30;6.20;99.90
29713;DHT22;16623;53.632;10.016;2023-12-20T03:49:55;6.10;99.90
29713;DHT22;16623;53.632;10.016;2023-12-20T03:52:21;6.20;99.90
29713;DHT22;16623;53.632;10.016;2023-12-20T03:54:46;6.20;99.90
29713;DHT22;16623;53.632;10.016;2023-12-20T03:57:12;6.20;99.90
29713;DHT22;16623;53.632;10.016;2023-12-20T03:59:37;6.20;99.90
29713;DHT22;16623;53.632;10.016;2023-12-20T04:02:04;6.20;99.90
29713;DHT22;16623;53.632;10.016;2023-12-20T04:04:30;6.20;99.90
29713;DHT22;16623;53.632;10.016;2023-12-20T04:06:55;6.20;99.90
29713;DHT22;16623;53.632;10.016;2023-12-20T04:09:21;6.10;99.90
29713;DHT22;16623;53.632;10.016;2023-12-20T04:11:47;6.10;99.90
29713;DHT22;16623;53.632;10.016;2023-12-20T04:14:12;6.20;99.90
29713;DHT22;16623;53.632;10.016;2023-12-20T04:16:38;6.20;99.90
29713;DHT22;16623;53.632;10.016;2023-12-20T04:19:04;6.20;99.90
29713;DHT22;16623;53.632;10.016;2023-12-20T04:21:30;6.20;99.90
29713;DHT22;16623;53.632;10.016;2023-12-20T04:23:55;6.10;99.90
29713;DHT22;16623;53.632;10.016;2023-12-20T04:26:21;6.10;99.90
29713;DHT22;16623;53.632;10.016;2023-12-20T04:28:46;6.00;99.90
29713;DHT22;16623;53.632;10.016;2023-12-20T04:31:12;5.90;99.90
29713;DHT22;16623;53.632;10.016;2023-12-20T04:33:37;6.00;99.90
29713;DHT22;16623;53.632;10.016;2023-12-20T04:36:03;6.00;99.90
29713;DHT22;16623;53.632;10.016;2023-12-20T04:38:29;6.00;99.90
29713;DHT22;16623;53.632;10.016;2023-12-20T04:40:55;6.00;99.90
29713;DHT22;16623;53.632;10.016;2023-12-20T04:43:21;6.10;99.90
29713;DHT22;16623;53.632;10.016;2023-12-20T04:45:46;6.10;99.90
29713;DHT22;16623;53.632;10.016;2023-12-20T04:48:12;6.90;99.90
29713;DHT22;16623;53.632;10.016;2023-12-20T04:50:37;6.10;99.90
29713;DHT22;16623;53.632;10.016;2023-12-20T04:53:03;6.10;99.90
29713;DHT22;16623;53.632;10.016;2023-12-20T04:55:29;6.10;99.90
29713;DHT22;16623;53.632;10.016;2023-12-20T04:57:55;6.20;99.90
29713;DHT22;16623;53.632;10.016;2023-12-20T05:00:20;6.10;99.90
29713;DHT22;16623;53.632;10.016;2023-12-20T05:02:45;6.10;99.90
29713;DHT22;16623;53.632;10.016;2023-12-20T05:05:11;6.10;99.90
29713;DHT22;16623;53.632;10.016;2023-12-20T05:07:36;6.20;99.90
29713;DHT22;16623;53.632;10.016;2023-12-20T05:10:03;6.20;99.90
29713;DHT22;16623;53.632;10.016;2023-12-20T05:12:30;6.20;99.90
29713;DHT22;16623;53.632;10.016;2023-12-20T05:14:55;6.20;99.90
29713;DHT22;16623;53.632;10.016;2023-12-20T05:17:21;6.20;99.90
29713;DHT22;16623;53.632;10.016;2023-12-20T05:19:46;6.30;99.90
29713;DHT22;16623;53.632;10.016;2023-12-20T05:22:12;6.30;99.90
29713;DHT22;16623;53.632;10.016;2023-12-20T05:24:37;6.30;99.90
29713;DHT22;16623;53.632;10.016;2023-12-20T05:27:03;6.40;99.90
29713;DHT22;16623;53.632;10.016;2023-12-20T05:29:29;6.40;99.90
29713;DHT22;16623;53.632;10.016;2023-12-20T05:31:54;6.50;99.90
29713;DHT22;16623;53.632;10.016;2023-12-20T05:34:20;6.50;99.90
29713;DHT22;16623;53.632;10.016;2023-12-20T05:36:45;6.40;99.90
29713;DHT22;16623;53.632;10.016;2023-12-20T05:39:14;6.50;99.90
29713;DHT22;16623;53.632;10.016;2023-12-20T05:41:40;6.50;99.90
29713;DHT22;16623;53.632;10.016;2023-12-20T05:44:05;6.40;99.90
29713;DHT22;16623;53.632;10.016;2023-12-20T05:46:31;6.40;99.90
29713;DHT22;16623;53.632;10.016;2023-12-20T05:48:56;6.30;99.90
29713;DHT22;16623;53.632;10.016;2023-12-20T05:51:22;6.30;99.90
29713;DHT22;16623;53.632;10.016;2023-12-20T05:53:53;6.30;99.90
29713;DHT22;16623;53.632;10.016;2023-12-20T05:56:18;6.20;99.90
29713;DHT22;16623;53.632;10.016;2023-12-20T05:58:44;6.20;99.90
29713;DHT22;16623;53.632;10.016;2023-12-20T06:01:09;6.30;99.90
29713;DHT22;16623;53.632;10.016;2023-12-20T06:03:35;6.30;99.90
29713;DHT22;16623;53.632;10.016;2023-12-20T06:06:08;6.30;99.90
29713;DHT22;16623;53.632;10.016;2023-12-20T06:08:33;6.40;99.90
29713;DHT22;16623;53.632;10.016;2023-12-20T06:10:59;6.40;99.90
29713;DHT22;16623;53.632;10.016;2023-12-20T06:13:25;6.30;99.90
29713;DHT22;16623;53.632;10.016;2023-12-20T06:15:51;6.30;99.90
29713;DHT22;16623;53.632;10.016;2023-12-20T06:18:17;6.40;99.90
29713;DHT22;16623;53.632;10.016;2023-12-20T06:20:45;6.40;99.90
29713;DHT22;16623;53.632;10.016;2023-12-20T06:23:10;6.40;99.90
29713;DHT22;16623;53.632;10.016;2023-12-20T06:25:36;6.50;99.90
29713;DHT22;16623;53.632;10.016;2023-12-20T06:30:27;6.40;99.90
29713;DHT22;16623;53.632;10.016;2023-12-20T06:32:54;6.40;99.90
29713;DHT22;16623;53.632;10.016;2023-12-20T06:35:20;6.20;99.90
29713;DHT22;16623;53.632;10.016;2023-12-20T06:37:45;6.40;99.90
29713;DHT22;16623;53.632;10.016;2023-12-20T06:40:11;6.50;99.90
29713;DHT22;16623;53.632;10.016;2023-12-20T06:42:37;6.40;99.90
29713;DHT22;16623;53.632;10.016;2023-12-20T06:45:03;6.60;99.90
29713;DHT22;16623;53.632;10.016;2023-12-20T06:47:29;6.50;99.90
29713;DHT22;16623;53.632;10.016;2023-12-20T06:49:54;6.50;99.90
29713;DHT22;16623;53.632;10.016;2023-12-20T06:52:20;6.50;99.90
29713;DHT22;16623;53.632;10.016;2023-12-20T06:54:45;6.50;99.90
29713;DHT22;16623;53.632;10.016;2023-12-20T06:57:10;6.50;99.90
29713;DHT22;16623;53.632;10.016;2023-12-20T06:59:40;6.50;99.90
29713;DHT22;16623;53.632;10.016;2023-12-20T07:02:09;6.50;99.90
29713;DHT22;16623;53.632;10.016;2023-12-20T07:04:39;6.50;99.90
29713;DHT22;16623;53.632;10.016;2023-12-20T07:07:05;6.60;99.90
29713;DHT22;16623;53.632;10.016;2023-12-20T07:09:30;6.50;99.90
29713;DHT22;16623;53.632;10.016;2023-12-20T07:11:56;6.50;99.90
29713;DHT22;16623;53.632;10.016;2023-12-20T07:14:22;6.50;99.90
29713;DHT22;16623;53.632;10.016;2023-12-20T07:16:47;6.50;99.90
29713;DHT22;16623;53.632;10.016;2023-12-20T07:19:13;6.50;99.90
29713;DHT22;16623;53.632;10.016;2023-12-20T07:21:38;6.60;99.90
29713;DHT22;16623;53.632;10.016;2023-12-20T07:24:04;6.50;99.90
29713;DHT22;16623;53.632;10.016;2023-12-20T07:26:29;6.50;99.90
29713;DHT22;16623;53.632;10.016;2023-12-20T07:28:55;6.50;99.90
29713;DHT22;16623;53.632;10.016;2023-12-20T07:31:24;6.60;99.90
29713;DHT22;16623;53.632;10.016;2023-12-20T07:33:49;6.60;99.90
29713;DHT22;16623;53.632;10.016;2023-12-20T07:36:15;6.60;99.90
29713;DHT22;16623;53.632;10.016;2023-12-20T07:38:40;6.60;99.90
29713;DHT22;16623;53.632;10.016;2023-12-20T07:41:09;6.70;99.90
29713;DHT22;16623;53.632;10.016;2023-12-20T07:43:35;6.70;99.90
29713;DHT22;16623;53.632;10.016;2023-12-20T07:46:05;6.60;99.90
29713;DHT22;16623;53.632;10.016;2023-12-20T07:48:30;6.60;99.90
29713;DHT22;16623;53.632;10.016;2023-12-20T07:50:56;6.70;99.90
29713;DHT22;16623;53.632;10.016;2023-12-20T07:53:22;6.70;99.90
29713;DHT22;16623;53.632;10.016;2023-12-20T07:55:50;7.10;99.90
29713;DHT22;16623;53.632;10.016;2023-12-20T07:58:21;7.50;99.90
29713;DHT22;16623;53.632;10.016;2023-12-20T08:00:47;6.70;99.90
29713;DHT22;16623;53.632;10.016;2023-12-20T08:03:12;6.80;99.90
29713;DHT22;16623;53.632;10.016;2023-12-20T08:05:38;6.80;99.90
29713;DHT22;16623;53.632;10.016;2023-12-20T08:08:06;6.80;99.90
29713;DHT22;16623;53.632;10.016;2023-12-20T08:10:31;6.80;99.90
29713;DHT22;16623;53.632;10.016;2023-12-20T08:12:57;6.70;99.90
29713;DHT22;16623;53.632;10.016;2023-12-20T08:15:23;6.80;99.90
29713;DHT22;16623;53.632;10.016;2023-12-20T08:17:49;6.80;99.90
29713;DHT22;16623;53.632;10.016;2023-12-20T08:20:16;6.80;99.90
29713;DHT22;16623;53.632;10.016;2023-12-20T08:22:42;6.80;99.90
29713;DHT22;16623;53.632;10.016;2023-12-20T08:25:08;6.80;99.90
29713;DHT22;16623;53.632;10.016;2023-12-20T08:27:39;6.90;99.90
29713;DHT22;16623;53.632;10.016;2023-12-20T08:30:09;6.80;99.90
29713;DHT22;16623;53.632;10.016;2023-12-20T08:32:35;6.80;99.90
29713;DHT22;16623;53.632;10.016;2023-12-20T08:35:01;6.80;99.90
29713;DHT22;16623;53.632;10.016;2023-12-20T08:37:26;6.80;99.90
29713;DHT22;16623;53.632;10.016;2023-12-20T08:39:52;6.90;99.90
29713;DHT22;16623;53.632;10.016;2023-12-20T08:42:17;6.90;99.90
29713;DHT22;16623;53.632;10.016;2023-12-20T08:44:43;6.90;99.90
29713;DHT22;16623;53.632;10.016;2023-12-20T08:47:08;7.00;99.90
29713;DHT22;16623;53.632;10.016;2023-12-20T08:49:38;7.10;99.90
29713;DHT22;16623;53.632;10.016;2023-12-20T08:52:04;7.20;99.90
29713;DHT22;16623;53.632;10.016;2023-12-20T08:54:30;7.30;99.90
29713;DHT22;16623;53.632;10.016;2023-12-20T08:56:55;7.20;99.90
29713;DHT22;16623;53.632;10.016;2023-12-20T08:59:22;7.20;99.90
29713;DHT22;16623;53.632;10.016;2023-12-20T09:01:48;7.20;99.90
29713;DHT22;16623;53.632;10.016;2023-12-20T09:04:19;7.10;99.90
29713;DHT22;16623;53.632;10.016;2023-12-20T09:06:45;7.30;99.90
29713;DHT22;16623;53.632;10.016;2023-12-20T09:09:10;7.10;99.90
29713;DHT22;16623;53.632;10.016;2023-12-20T09:11:39;7.10;99.90
29713;DHT22;16623;53.632;10.016;2023-12-20T09:14:04;7.00;99.90
29713;DHT22;16623;53.632;10.016;2023-12-20T09:16:30;7.00;99.90
29713;DHT22;16623;53.632;10.016;2023-12-20T09:18:57;6.90;99.90
29713;DHT22;16623;53.632;10.016;2023-12-20T09:21:22;7.00;99.90
29713;DHT22;16623;53.632;10.016;2023-12-20T09:23:48;6.90;99.90
29713;DHT22;16623;53.632;10.016;2023-12-20T09:26:13;6.90;99.90
29713;DHT22;16623;53.632;10.016;2023-12-20T09:28:39;6.90;99.90
29713;DHT22;16623;53.632;10.016;2023-12-20T09:31:05;6.70;99.90
29713;DHT22;16623;53.632;10.016;2023-12-20T09:33:32;6.70;99.90
29713;DHT22;16623;53.632;10.016;2023-12-20T09:35:57;6.70;99.90
29713;DHT22;16623;53.632;10.016;2023-12-20T09:38:23;6.70;99.90
29713;DHT22;16623;53.632;10.016;2023-12-20T09:40:49;6.60;99.90
29713;DHT22;16623;53.632;10.016;2023-12-20T09:43:15;6.60;99.90
29713;DHT22;16623;53.632;10.016;2023-12-20T09:45:41;6.60;99.90
29713;DHT22;16623;53.632;10.016;2023-12-20T09:48:11;6.60;99.90
29713;DHT22;16623;53.632;10.016;2023-12-20T09:50:37;6.70;99.90
29713;DHT22;16623;53.632;10.016;2023-12-20T09:53:04;6.60;99.90
29713;DHT22;16623;53.632;10.016;2023-12-20T09:55:34;6.60;99.90
29713;DHT22;16623;53.632;10.016;2023-12-20T09:58:01;7.30;99.90
29713;DHT22;16623;53.632;10.016;2023-12-20T10:00:26;6.50;99.90
29713;DHT22;16623;53.632;10.016;2023-12-20T10:02:59;6.50;99.90
29713;DHT22;16623;53.632;10.016;2023-12-20T10:05:34;6.30;99.90
29713;DHT22;16623;53.632;10.016;2023-12-20T10:08:00;6.30;99.90
29713;DHT22;16623;53.632;10.016;2023-12-20T10:10:27;6.30;99.90
29713;DHT22;16623;53.632;10.016;2023-12-20T10:13:03;6.30;99.90
29713;DHT22;16623;53.632;10.016;2023-12-20T10:15:29;6.20;99.90
29713;DHT22;16623;53.632;10.016;2023-12-20T10:18:04;6.20;99.90
29713;DHT22;16623;53.632;10.016;2023-12-20T10:20:31;6.20;99.90
29713;DHT22;16623;53.632;10.016;2023-12-20T10:22:57;6.20;99.90
29713;DHT22;16623;53.632;10.016;2023-12-20T10:25:23;6.30;99.90
29713;DHT22;16623;53.632;10.016;2023-12-20T10:27:50;6.30;99.90
29713;DHT22;16623;53.632;10.016;2023-12-20T10:30:33;6.30;99.90
29713;DHT22;16623;53.632;10.016;2023-12-20T10:32:58;6.30;99.90
29713;DHT22;16623;53.632;10.016;2023-12-20T10:35:24;6.30;99.90
29713;DHT22;16623;53.632;10.016;2023-12-20T10:37:56;6.30;99.90
29713;DHT22;16623;53.632;10.016;2023-12-20T10:40:27;6.30;99.90
29713;DHT22;16623;53.632;10.016;2023-12-20T10:42:56;6.30;99.90
29713;DHT22;16623;53.632;10.016;2023-12-20T10:45:23;6.20;99.90
29713;DHT22;16623;53.632;10.016;2023-12-20T10:47:49;6.20;99.90
29713;DHT22;16623;53.632;10.016;2023-12-20T10:50:16;6.20;99.90
29713;DHT22;16623;53.632;10.016;2023-12-20T10:52:42;6.10;99.90
29713;DHT22;16623;53.632;10.016;2023-12-20T10:55:10;6.10;99.90
29713;DHT22;16623;53.632;10.016;2023-12-20T10:57:36;6.10;99.90
29713;DHT22;16623;53.632;10.016;2023-12-20T11:00:03;6.20;99.90
29713;DHT22;16623;53.632;10.016;2023-12-20T11:02:32;6.10;99.90
29713;DHT22;16623;53.632;10.016;2023-12-20T11:05:29;6.20;99.90
29713;DHT22;16623;53.632;10.016;2023-12-20T11:10:49;6.20;99.90
29713;DHT22;16623;53.632;10.016;2023-12-20T11:13:40;6.10;99.90
29713;DHT22;16623;53.632;10.016;2023-12-20T11:16:06;6.20;99.90
29713;DHT22;16623;53.632;10.016;2023-12-20T11:18:33;6.10;99.90
29713;DHT22;16623;53.632;10.016;2023-12-20T11:21:04;6.10;99.90
29713;DHT22;16623;53.632;10.016;2023-12-20T11:23:30;6.00;99.90
29713;DHT22;16623;53.632;10.016;2023-12-20T11:26:00;5.90;99.90
29713;DHT22;16623;53.632;10.016;2023-12-20T11:28:27;5.80;99.90
29713;DHT22;16623;53.632;10.016;2023-12-20T11:30:53;5.80;99.90
29713;DHT22;16623;53.632;10.016;2023-12-20T11:33:24;5.70;99.90
29713;DHT22;16623;53.632;10.016;2023-12-20T11:35:50;5.70;99.90
29713;DHT22;16623;53.632;10.016;2023-12-20T11:38:15;5.60;99.90
29713;DHT22;16623;53.632;10.016;2023-12-20T11:40:42;5.50;99.90
29713;DHT22;16623;53.632;10.016;2023-12-20T11:43:08;5.50;99.90
29713;DHT22;16623;53.632;10.016;2023-12-20T11:45:33;5.50;99.90
29713;DHT22;16623;53.632;10.016;2023-12-20T11:48:03;5.50;99.90
29713;DHT22;16623;53.632;10.016;2023-12-20T11:50:29;5.50;99.90
29713;DHT22;16623;53.632;10.016;2023-12-20T11:52:56;5.40;99.90
29713;DHT22;16623;53.632;10.016;2023-12-20T11:55:25;5.50;99.90
29713;DHT22;16623;53.632;10.016;2023-12-20T11:57:51;5.60;99.90
29713;DHT22;16623;53.632;10.016;2023-12-20T12:00:17;5.60;99.90
29713;DHT22;16623;53.632;10.016;2023-12-20T12:02:45;5.80;99.90
29713;DHT22;16623;53.632;10.016;2023-12-20T12:05:20;5.80;99.90
29713;DHT22;16623;53.632;10.016;2023-12-20T12:07:45;5.90;99.90
29713;DHT22;16623;53.632;10.016;2023-12-20T12:10:11;5.90;99.90
29713;DHT22;16623;53.632;10.016;2023-12-20T12:12:36;6.00;99.90
29713;DHT22;16623;53.632;10.016;2023-12-20T12:15:02;7.30;99.90
29713;DHT22;16623;53.632;10.016;2023-12-20T12:17:28;6.10;99.90
29713;DHT22;16623;53.632;10.016;2023-12-20T12:20:02;6.10;99.90
29713;DHT22;16623;53.632;10.016;2023-12-20T12:22:28;6.20;99.90
29713;DHT22;16623;53.632;10.016;2023-12-20T12:25:11;6.20;99.90
29713;DHT22;16623;53.632;10.016;2023-12-20T12:27:36;6.30;99.90
29713;DHT22;16623;53.632;10.016;2023-12-20T12:30:05;6.50;99.90
29713;DHT22;16623;53.632;10.016;2023-12-20T12:32:32;6.60;99.90
29713;DHT22;16623;53.632;10.016;2023-12-20T12:34:58;6.70;99.90
29713;DHT22;16623;53.632;10.016;2023-12-20T12:37:23;6.80;99.90
29713;DHT22;16623;53.632;10.016;2023-12-20T12:39:49;6.70;99.90
29713;DHT22;16623;53.632;10.016;2023-12-20T12:42:18;6.90;99.90
29713;DHT22;16623;53.632;10.016;2023-12-20T12:44:44;7.10;99.90
29713;DHT22;16623;53.632;10.016;2023-12-20T12:47:09;7.10;99.90
29713;DHT22;16623;53.632;10.016;2023-12-20T12:49:35;7.10;99.90
29713;DHT22;16623;53.632;10.016;2023-12-20T12:52:01;7.20;99.90
29713;DHT22;16623;53.632;10.016;2023-12-20T12:54:26;7.20;99.90
29713;DHT22;16623;53.632;10.016;2023-12-20T12:56:51;7.10;99.90
29713;DHT22;16623;53.632;10.016;2023-12-20T12:59:18;7.10;99.90
29713;DHT22;16623;53.632;10.016;2023-12-20T13:01:44;7.10;99.90
29713;DHT22;16623;53.632;10.016;2023-12-20T13:04:09;7.10;99.90
29713;DHT22;16623;53.632;10.016;2023-12-20T13:06:39;7.10;99.90
29713;DHT22;16623;53.632;10.016;2023-12-20T13:09:06;7.10;99.90
29713;DHT22;16623;53.632;10.016;2023-12-20T13:11:32;7.10;99.90
29713;DHT22;16623;53.632;10.016;2023-12-20T13:13:57;7.00;99.90
29713;DHT22;16623;53.632;10.016;2023-12-20T13:16:23;7.00;99.90
29713;DHT22;16623;53.632;10.016;2023-12-20T13:18:50;6.90;99.90
29713;DHT22;16623;53.632;10.016;2023-12-20T13:21:15;6.90;99.90
29713;DHT22;16623;53.632;10.016;2023-12-20T13:23:42;6.90;99.90
29713;DHT22;16623;53.632;10.016;2023-12-20T13:26:08;6.90;99.90
29713;DHT22;16623;53.632;10.016;2023-12-20T13:28:33;7.00;99.90
29713;DHT22;16623;53.632;10.016;2023-12-20T13:30:59;7.00;99.90
29713;DHT22;16623;53.632;10.016;2023-12-20T13:33:25;7.00;99.90
29713;DHT22;16623;53.632;10.016;2023-12-20T13:35:50;7.00;99.90
29713;DHT22;16623;53.632;10.016;2023-12-20T13:38:16;7.00;99.90
29713;DHT22;16623;53.632;10.016;2023-12-20T13:40:41;7.00;99.90
29713;DHT22;16623;53.632;10.016;2023-12-20T13:43:07;6.90;99.90
29713;DHT22;16623;53.632;10.016;2023-12-20T13:45:32;6.90;99.90
29713;DHT22;16623;53.632;10.016;2023-12-20T13:47:59;6.90;99.90
29713;DHT22;16623;53.632;10.016;2023-12-20T13:50:24;7.00;99.90
29713;DHT22;16623;53.632;10.016;2023-12-20T13:52:51;6.90;99.90
29713;DHT22;16623;53.632;10.016;2023-12-20T13:55:17;6.80;99.90
29713;DHT22;16623;53.632;10.016;2023-12-20T13:57:42;6.80;99.90
29713;DHT22;16623;53.632;10.016;2023-12-20T14:00:08;6.80;99.90
29713;DHT22;16623;53.632;10.016;2023-12-20T14:02:40;6.80;99.90
29713;DHT22;16623;53.632;10.016;2023-12-20T14:05:06;6.80;99.90
29713;DHT22;16623;53.632;10.016;2023-12-20T14:07:32;6.70;99.90
29713;DHT22;16623;53.632;10.016;2023-12-20T14:09:57;7.80;99.90
29713;DHT22;16623;53.632;10.016;2023-12-20T14:12:25;6.60;99.90
29713;DHT22;16623;53.632;10.016;2023-12-20T14:14:50;6.60;99.90
29713;DHT22;16623;53.632;10.016;2023-12-20T14:17:17;6.60;99.90
29713;DHT22;16623;53.632;10.016;2023-12-20T14:19:42;6.50;99.90
29713;DHT22;16623;53.632;10.016;2023-12-20T14:22:08;6.60;99.90
29713;DHT22;16623;53.632;10.016;2023-12-20T14:24:35;6.60;99.90
29713;DHT22;16623;53.632;10.016;2023-12-20T14:27:00;6.70;99.90
29713;DHT22;16623;53.632;10.016;2023-12-20T14:29:26;6.60;99.90
29713;DHT22;16623;53.632;10.016;2023-12-20T14:31:52;6.60;99.90
29713;DHT22;16623;53.632;10.016;2023-12-20T14:34:18;6.50;99.90
29713;DHT22;16623;53.632;10.016;2023-12-20T14:36:43;6.50;99.90
29713;DHT22;16623;53.632;10.016;2023-12-20T14:39:09;6.50;99.90
29713;DHT22;16623;53.632;10.016;2023-12-20T14:41:38;6.50;99.90
29713;DHT22;16623;53.632;10.016;2023-12-20T14:44:05;6.50;99.90
29713;DHT22;16623;53.632;10.016;2023-12-20T14:46:30;6.60;99.90
29713;DHT22;16623;53.632;10.016;2023-12-20T14:48:56;6.50;99.90
29713;DHT22;16623;53.632;10.016;2023-12-20T14:51:21;6.50;99.90
29713;DHT22;16623;53.632;10.016;2023-12-20T14:53:48;6.50;99.90
29713;DHT22;16623;53.632;10.016;2023-12-20T14:56:13;6.50;99.90
29713;DHT22;16623;53.632;10.016;2023-12-20T14:58:40;6.50;99.90
29713;DHT22;16623;53.632;10.016;2023-12-20T15:01:05;6.60;99.90
29713;DHT22;16623;53.632;10.016;2023-12-20T15:03:34;6.60;99.90
29713;DHT22;16623;53.632;10.016;2023-12-20T15:05:59;6.70;99.90
29713;DHT22;16623;53.632;10.016;2023-12-20T15:08:25;6.70;99.90
29713;DHT22;16623;53.632;10.016;2023-12-20T15:10:51;6.60;99.90
29713;DHT22;16623;53.632;10.016;2023-12-20T15:13:16;6.50;99.90
29713;DHT22;16623;53.632;10.016;2023-12-20T15:15:42;6.70;99.90
29713;DHT22;16623;53.632;10.016;2023-12-20T15:18:08;6.60;99.90
29713;DHT22;16623;53.632;10.016;2023-12-20T15:20:33;6.70;99.90
29713;DHT22;16623;53.632;10.016;2023-12-20T15:22:59;6.70;99.90
29713;DHT22;16623;53.632;10.016;2023-12-20T15:25:31;6.70;99.90
29713;DHT22;16623;53.632;10.016;2023-12-20T15:27:57;6.70;99.90
29713;DHT22;16623;53.632;10.016;2023-12-20T15:30:22;6.70;99.90